Time;durP1;ratioP1;P1;durP2;ratioP2;P2;SDS_P1;SDS_P2;PMS_P1;PMS_P2;Temp;Humidity;BMP_temperature;BMP_pressure;BME280_temperature;BME280_humidity;BME280_pressure;Samples;Min_cycle;Max_cycle;Signal;HPM_P1;HPM_P2
2021/06/23 00:01:28;;;;;;;9.52;5.00;;;13.90;80.10;;;;;;5073024;28;20467;-82
2021/06/23 00:03:53;;;;;;;11.13;4.88;;;13.80;80.20;;;;;;5072300;28;20055;-83
2021/06/23 00:09:41;;;;;;;7.03;4.60;;;13.90;80.40;;;;;;5075197;28;20036;-82
2021/06/23 00:12:13;;;;;;;6.85;4.80;;;13.90;80.10;;;;;;5074513;28;20392;-82
2021/06/23 00:14:39;;;;;;;6.07;4.80;;;13.90;80.20;;;;;;5074363;28;20028;-81
2021/06/23 00:17:05;;;;;;;9.27;5.18;;;13.90;80.90;;;;;;5073019;28;20499;-83
2021/06/23 00:19:30;;;;;;;6.30;5.03;;;13.90;80.30;;;;;;5074162;28;20032;-82
2021/06/23 00:21:56;;;;;;;5.63;4.57;;;13.90;80.30;;;;;;5072761;28;20068;-82
2021/06/23 00:24:22;;;;;;;6.55;5.05;;;13.80;80.30;;;;;;5072592;28;20056;-82
2021/06/23 00:26:47;;;;;;;8.85;4.75;;;13.80;80.50;;;;;;5073916;28;20031;-82
2021/06/23 00:29:13;;;;;;;7.88;4.40;;;13.80;80.50;;;;;;5072713;28;20029;-82
2021/06/23 00:31:38;;;;;;;9.40;4.50;;;13.80;80.50;;;;;;5072608;28;20034;-82
2021/06/23 00:34:07;;;;;;;8.60;4.75;;;13.80;80.50;;;;;;5073792;28;20488;-82
2021/06/23 00:36:32;;;;;;;5.72;4.40;;;13.80;80.50;;;;;;5072461;28;20115;-83
2021/06/23 00:38:58;;;;;;;6.32;4.60;;;13.80;80.40;;;;;;5072485;28;20079;-81
2021/06/23 00:41:24;;;;;;;8.73;4.55;;;13.80;80.30;;;;;;5072417;28;20452;-83
2021/06/23 00:43:50;;;;;;;8.13;4.70;;;13.80;80.40;;;;;;5073716;28;20029;-83
2021/06/23 00:46:16;;;;;;;6.05;4.57;;;13.70;80.40;;;;;;5073534;28;20032;-83
2021/06/23 00:48:42;;;;;;;8.90;4.78;;;13.70;80.50;;;;;;5073627;28;20029;-82
2021/06/23 00:51:08;;;;;;;6.55;4.53;;;13.60;80.70;;;;;;5072230;28;20044;-82
2021/06/23 00:53:34;;;;;;;7.10;4.72;;;13.60;80.70;;;;;;5072751;28;20420;-82
2021/06/23 00:56:01;;;;;;;5.15;4.38;;;13.50;81.40;;;;;;5073565;28;20062;-82
2021/06/23 00:58:27;;;;;;;7.35;4.45;;;13.50;81.00;;;;;;5072364;28;20028;-82
2021/06/23 01:00:55;;;;;;;7.75;4.93;;;13.50;81.60;;;;;;5071779;28;20159;-81
2021/06/23 01:03:21;;;;;;;8.43;4.80;;;13.50;81.10;;;;;;5071777;28;20033;-82
2021/06/23 01:05:48;;;;;;;8.75;4.57;;;13.60;81.10;;;;;;5071683;28;20025;-82
2021/06/23 01:08:14;;;;;;;8.75;5.20;;;13.50;81.00;;;;;;5072016;28;20108;-83
2021/06/23 01:10:40;;;;;;;9.18;4.78;;;13.60;81.00;;;;;;5071789;28;20028;-81
2021/06/23 01:13:35;;;;;;;7.55;4.72;;;13.60;81.00;;;;;;5071795;28;20028;-82
2021/06/23 01:16:04;;;;;;;4.88;4.13;;;13.50;81.00;;;;;;5071738;28;20017;-81
2021/06/23 01:18:32;;;;;;;7.22;4.32;;;13.60;80.90;;;;;;5073211;28;20020;-81
2021/06/23 01:20:58;;;;;;;6.13;4.30;;;13.60;80.90;;;;;;5073085;28;20484;-81
2021/06/23 01:23:24;;;;;;;6.35;4.20;;;13.60;81.00;;;;;;5072900;28;20074;-82
2021/06/23 01:25:51;;;;;;;8.80;4.50;;;13.60;81.00;;;;;;5073031;28;20025;-82
2021/06/23 01:28:17;;;;;;;7.28;4.30;;;13.50;80.90;;;;;;5071693;28;20476;-81
2021/06/23 01:30:42;;;;;;;5.15;4.43;;;13.60;81.00;;;;;;5072018;28;20028;-83
2021/06/23 01:33:09;;;;;;;8.20;4.47;;;13.60;81.10;;;;;;5071424;28;20476;-81
2021/06/23 01:35:35;;;;;;;6.80;4.40;;;13.60;81.10;;;;;;5071761;28;20021;-81
2021/06/23 01:38:02;;;;;;;6.57;4.68;;;13.60;81.10;;;;;;5072761;28;20051;-82
2021/06/23 01:41:05;;;;;;;10.00;4.60;;;13.50;81.00;;;;;;5071735;28;20036;-82
2021/06/23 01:43:31;;;;;;;6.22;4.45;;;13.50;81.10;;;;;;5071270;28;20036;-82
2021/06/23 01:45:56;;;;;;;5.72;4.18;;;13.50;81.10;;;;;;5071483;28;20476;-82
2021/06/23 01:48:24;;;;;;;9.13;4.70;;;13.60;81.20;;;;;;5071478;28;20024;-82
2021/06/23 01:50:51;;;;;;;7.35;4.60;;;13.50;81.20;;;;;;5071577;28;20074;-81
2021/06/23 01:53:17;;;;;;;8.13;4.57;;;13.60;81.20;;;;;;5072820;28;20101;-82
2021/06/23 01:55:43;;;;;;;7.03;4.03;;;13.60;81.20;;;;;;5071572;28;20043;-82
2021/06/23 01:58:11;;;;;;;7.90;4.40;;;13.50;81.20;;;;;;5071268;28;20025;-82
2021/06/23 02:00:41;;;;;;;9.00;4.45;;;13.50;81.30;;;;;;5072417;28;20070;-82
2021/06/23 02:03:23;;;;;;;6.07;4.30;;;13.50;81.30;;;;;;5071525;28;20032;-81
2021/06/23 02:05:54;;;;;;;8.93;4.18;;;13.50;81.30;;;;;;5071304;28;20543;-83
2021/06/23 02:08:47;;;;;;;7.53;4.63;;;13.50;81.30;;;;;;5071275;28;20063;-82
2021/06/23 02:11:36;;;;;;;7.72;4.45;;;13.50;81.40;;;;;;5072427;28;20028;-81
2021/06/23 02:14:20;;;;;;;5.70;3.85;;;13.50;81.40;;;;;;5071475;28;20044;-81
2021/06/23 02:16:49;;;;;;;8.50;4.90;;;13.50;81.30;;;;;;5072372;28;20032;-82
2021/06/23 02:19:15;;;;;;;6.63;4.20;;;13.50;81.30;;;;;;5071247;28;20388;-82
2021/06/23 02:21:41;;;;;;;7.38;4.32;;;13.50;81.40;;;;;;5072529;28;20029;-81
2021/06/23 02:24:08;;;;;;;6.93;4.20;;;13.60;81.30;;;;;;5071146;28;20025;-80
2021/06/23 02:26:35;;;;;;;9.48;4.30;;;13.50;81.20;;;;;;5070778;28;20129;-81
2021/06/23 02:29:02;;;;;;;6.47;4.20;;;13.60;81.30;;;;;;5074488;28;20024;-82
2021/06/23 02:31:29;;;;;;;9.82;4.25;;;13.60;81.30;;;;;;5076329;28;20107;-81
2021/06/23 02:33:56;;;;;;;8.85;4.25;;;13.60;81.30;;;;;;5074940;28;20037;-81
2021/06/23 02:36:24;;;;;;;7.05;4.43;;;13.50;81.30;;;;;;5074755;28;20029;-81
2021/06/23 02:38:50;;;;;;;7.45;4.15;;;13.50;81.20;;;;;;5074906;28;20062;-82
2021/06/23 02:41:17;;;;;;;7.47;4.32;;;13.50;81.10;;;;;;5074409;28;20127;-81
2021/06/23 02:43:43;;;;;;;8.02;4.32;;;13.50;81.20;;;;;;5074713;28;20028;-81
2021/06/23 02:46:09;;;;;;;4.97;3.80;;;13.50;81.10;;;;;;5075741;28;20021;-81
2021/06/23 02:48:35;;;;;;;7.32;4.15;;;13.50;81.10;;;;;;5074254;28;20032;-81
2021/06/23 02:51:12;;;;;;;6.75;4.22;;;13.50;81.20;;;;;;5074140;28;20067;-83
2021/06/23 02:53:38;;;;;;;8.88;4.50;;;13.50;81.20;;;;;;5074379;28;20040;-81
2021/06/23 02:56:05;;;;;;;6.03;4.30;;;13.50;81.20;;;;;;5075561;28;20024;-81
2021/06/23 02:58:32;;;;;;;9.65;4.82;;;13.50;81.10;;;;;;5074196;28;20030;-81
2021/06/23 03:00:59;;;;;;;7.07;4.50;;;13.50;81.10;;;;;;5074024;28;20136;-82
2021/06/23 03:03:25;;;;;;;5.68;4.00;;;13.50;81.20;;;;;;5074090;28;20506;-82
2021/06/23 03:05:50;;;;;;;5.65;3.92;;;13.50;81.10;;;;;;5075365;28;20107;-82
2021/06/23 03:08:16;;;;;;;4.53;3.92;;;13.50;81.10;;;;;;5074066;28;20027;-81
2021/06/23 03:10:42;;;;;;;6.95;4.30;;;13.50;81.10;;;;;;5073815;28;20489;-81
2021/06/23 03:13:09;;;;;;;8.45;4.13;;;13.60;81.20;;;;;;5075216;28;20024;-81
2021/06/23 03:15:35;;;;;;;6.88;4.45;;;13.50;81.10;;;;;;5073950;28;20028;-81
2021/06/23 03:18:02;;;;;;;6.68;4.07;;;13.60;81.20;;;;;;5073857;28;20028;-81
2021/06/23 03:20:28;;;;;;;8.27;4.40;;;13.50;81.20;;;;;;5073999;28;20443;-81
2021/06/23 03:22:53;;;;;;;8.40;4.53;;;13.50;81.10;;;;;;5073965;28;20041;-81
2021/06/23 03:25:19;;;;;;;6.70;3.90;;;13.50;81.10;;;;;;5073838;28;20028;-81
2021/06/23 03:27:55;;;;;;;6.45;4.20;;;13.50;81.10;;;;;;5073710;28;20120;-81
2021/06/23 03:30:23;;;;;;;7.38;4.53;;;13.50;81.10;;;;;;5073752;28;20469;-81
2021/06/23 03:32:50;;;;;;;8.40;4.35;;;13.50;81.10;;;;;;5074450;28;20534;-81
2021/06/23 03:35:17;;;;;;;5.53;4.10;;;13.50;81.10;;;;;;5072861;28;20083;-81
2021/06/23 03:37:43;;;;;;;5.93;3.92;;;13.50;81.20;;;;;;5075060;28;20070;-81
2021/06/23 03:40:09;;;;;;;7.60;4.30;;;13.50;81.70;;;;;;5073483;28;20407;-82
2021/06/23 03:42:34;;;;;;;7.03;4.22;;;13.50;81.10;;;;;;5073138;28;20082;-81
2021/06/23 03:45:00;;;;;;;8.23;4.63;;;13.50;81.20;;;;;;5073368;28;20028;-82
2021/06/23 03:47:25;;;;;;;4.30;3.53;;;13.50;81.20;;;;;;5073420;28;20086;-82
2021/06/23 03:49:51;;;;;;;7.50;4.03;;;13.50;81.10;;;;;;5073360;28;20043;-82
2021/06/23 03:52:17;;;;;;;5.70;4.13;;;13.50;81.10;;;;;;5073031;28;20048;-82
2021/06/23 03:54:42;;;;;;;7.05;4.32;;;13.50;81.10;;;;;;5073046;28;20479;-81
2021/06/23 03:57:08;;;;;;;5.63;4.22;;;13.50;81.70;;;;;;5073051;28;20106;-81
2021/06/23 03:59:34;;;;;;;5.13;4.18;;;13.50;81.10;;;;;;5074507;28;20029;-81
2021/06/23 04:01:59;;;;;;;7.72;4.38;;;13.50;81.10;;;;;;5073028;28;20117;-83
2021/06/23 04:04:25;;;;;;;7.13;4.07;;;13.50;81.10;;;;;;5072830;28;20036;-81
2021/06/23 04:06:50;;;;;;;6.07;4.00;;;13.60;81.00;;;;;;5072816;28;20119;-81
2021/06/23 04:09:16;;;;;;;6.88;4.10;;;13.60;81.00;;;;;;5074122;28;20036;-81
2021/06/23 04:11:42;;;;;;;6.72;3.90;;;13.60;81.00;;;;;;5072706;28;20372;-82
2021/06/23 04:14:07;;;;;;;4.43;3.42;;;13.60;80.90;;;;;;5072821;28;20038;-80
2021/06/23 04:16:33;;;;;;;6.80;4.03;;;13.60;80.90;;;;;;5074284;28;20146;-83
2021/06/23 04:19:36;;;;;;;6.95;4.05;;;13.60;80.80;;;;;;5072738;28;20025;-83
2021/06/23 04:22:02;;;;;;;6.75;3.67;;;13.60;80.80;;;;;;5073731;28;20118;-81
2021/06/23 04:24:27;;;;;;;6.53;4.00;;;13.50;80.70;;;;;;5074174;28;20020;-81
2021/06/23 04:26:53;;;;;;;7.63;3.80;;;13.50;80.70;;;;;;5074231;28;20366;-82
2021/06/23 04:29:19;;;;;;;6.05;3.90;;;13.50;80.70;;;;;;5074199;28;20060;-80
2021/06/23 04:31:45;;;;;;;5.75;3.30;;;13.50;81.30;;;;;;5072382;28;20455;-80
2021/06/23 04:34:10;;;;;;;6.88;3.72;;;13.50;80.60;;;;;;5073757;28;20051;-81
2021/06/23 04:36:36;;;;;;;8.43;3.70;;;13.50;80.50;;;;;;5072163;28;20522;-79
2021/06/23 04:39:02;;;;;;;7.07;3.50;;;13.50;80.50;;;;;;5073837;28;20374;-82
2021/06/23 04:41:27;;;;;;;6.05;3.10;;;13.50;80.50;;;;;;5071941;28;20048;-82
2021/06/23 04:43:53;;;;;;;6.35;3.60;;;13.50;80.40;;;;;;5072195;28;20381;-81
2021/06/23 04:46:19;;;;;;;5.90;3.75;;;13.60;80.40;;;;;;5072086;28;20197;-81
2021/06/23 04:48:44;;;;;;;8.98;4.20;;;13.60;80.40;;;;;;5072282;28;20428;-82
2021/06/23 04:51:12;;;;;;;5.63;3.40;;;13.50;80.30;;;;;;5071449;28;20064;-81
2021/06/23 04:53:37;;;;;;;4.13;3.05;;;13.60;80.40;;;;;;5074041;28;20091;-81
2021/06/23 04:56:04;;;;;;;6.32;3.60;;;13.60;80.30;;;;;;5072000;28;20106;-81
2021/06/23 04:58:31;;;;;;;6.70;3.70;;;13.60;80.30;;;;;;5072127;28;20029;-81
2021/06/23 05:00:57;;;;;;;8.18;3.70;;;13.60;80.30;;;;;;5071874;28;20074;-81
2021/06/23 05:03:23;;;;;;;7.78;3.90;;;13.60;80.30;;;;;;5072056;28;20029;-81
2021/06/23 05:05:48;;;;;;;7.32;3.72;;;13.60;80.30;;;;;;5069042;28;20040;-81
2021/06/23 05:08:14;;;;;;;5.57;3.30;;;13.60;80.30;;;;;;5072105;28;20020;-81
2021/06/23 05:10:39;;;;;;;6.05;3.78;;;13.60;80.30;;;;;;5071803;28;20024;-81
2021/06/23 05:13:05;;;;;;;4.28;3.38;;;13.70;80.30;;;;;;5072301;28;20024;-81
2021/06/23 05:15:31;;;;;;;5.40;3.35;;;13.70;80.20;;;;;;5072073;28;20396;-81
2021/06/23 05:17:57;;;;;;;6.15;3.70;;;13.70;80.70;;;;;;5073271;28;20033;-83
2021/06/23 05:20:23;;;;;;;5.13;3.38;;;13.80;80.10;;;;;;5071803;28;20035;-81
2021/06/23 05:22:50;;;;;;;7.28;3.67;;;13.80;80.10;;;;;;5071979;28;20024;-80
2021/06/23 05:25:19;;;;;;;5.35;3.90;;;13.80;80.10;;;;;;5072254;28;20020;-80
2021/06/23 05:27:46;;;;;;;6.15;3.50;;;13.90;80.10;;;;;;5072202;28;20021;-81
2021/06/23 05:30:12;;;;;;;5.93;3.80;;;13.90;80.10;;;;;;5072083;28;20021;-80
2021/06/23 05:32:38;;;;;;;5.85;3.45;;;13.90;80.00;;;;;;5072021;28;20070;-82
2021/06/23 05:35:04;;;;;;;5.60;3.33;;;14.00;80.00;;;;;;5071880;28;20476;-82
2021/06/23 05:37:31;;;;;;;6.07;3.45;;;14.00;79.90;;;;;;5073362;28;20175;-83
2021/06/23 05:39:56;;;;;;;7.35;3.10;;;14.10;79.90;;;;;;5073260;28;20036;-83
2021/06/23 05:42:22;;;;;;;7.82;3.40;;;14.20;79.90;;;;;;5071788;28;20029;-83
2021/06/23 05:44:48;;;;;;;4.70;3.55;;;14.20;79.50;;;;;;5071748;28;20020;-82
2021/06/23 05:47:14;;;;;;;7.25;3.55;;;14.20;80.00;;;;;;5071806;28;20082;-82
2021/06/23 05:49:40;;;;;;;6.63;3.45;;;14.30;79.40;;;;;;5071377;28;20515;-83
2021/06/23 05:52:06;;;;;;;5.55;3.60;;;14.30;79.30;;;;;;5071493;28;20094;-82
2021/06/23 05:54:32;;;;;;;6.78;3.15;;;14.40;79.20;;;;;;5071587;28;20365;-83
2021/06/23 05:56:57;;;;;;;8.43;3.17;;;14.50;79.20;;;;;;5072834;28;20033;-84
2021/06/23 05:59:23;;;;;;;6.20;3.17;;;14.50;78.80;;;;;;5072758;28;20028;-83
2021/06/23 06:01:49;;;;;;;12.18;3.40;;;14.50;78.70;;;;;;5071080;28;20067;-83
2021/06/23 06:04:14;;;;;;;4.57;2.90;;;14.70;78.70;;;;;;5076198;28;20035;-83
2021/06/23 06:06:40;;;;;;;5.03;3.30;;;14.70;78.30;;;;;;5075266;28;20032;-83
2021/06/23 06:09:06;;;;;;;7.38;3.30;;;14.80;78.00;;;;;;5075362;28;20028;-83
2021/06/23 06:11:31;;;;;;;8.40;3.20;;;14.80;77.90;;;;;;5075473;28;20028;-83
2021/06/23 06:13:57;;;;;;;4.80;2.78;;;14.90;77.60;;;;;;5075237;28;20391;-82
2021/06/23 06:16:23;;;;;;;6.50;2.50;;;15.00;77.30;;;;;;5075578;28;20119;-82
2021/06/23 06:18:49;;;;;;;7.40;3.00;;;15.00;77.10;;;;;;5075658;28;20024;-83
2021/06/23 06:21:15;;;;;;;7.18;2.70;;;15.00;76.70;;;;;;5074998;28;20033;-83
2021/06/23 06:23:41;;;;;;;6.05;2.40;;;15.00;76.50;;;;;;5075091;28;20025;-82
2021/06/23 06:26:07;;;;;;;5.57;2.53;;;15.10;76.50;;;;;;5076421;28;20089;-82
2021/06/23 06:28:34;;;;;;;4.22;2.35;;;15.10;76.40;;;;;;5074819;28;20024;-82
2021/06/23 06:31:00;;;;;;;5.53;2.60;;;15.20;76.40;;;;;;5074988;28;20025;-83
2021/06/23 06:33:25;;;;;;;4.82;2.20;;;15.20;76.20;;;;;;5075060;28;20025;-83
2021/06/23 06:35:51;;;;;;;5.35;2.50;;;15.30;76.30;;;;;;5074963;28;20056;-83
2021/06/23 06:38:17;;;;;;;4.82;2.17;;;15.30;75.80;;;;;;5075009;28;20024;-83
2021/06/23 06:40:42;;;;;;;4.32;2.13;;;15.40;75.90;;;;;;5076375;28;20017;-83
2021/06/23 06:43:14;;;;;;;6.78;2.42;;;15.30;75.90;;;;;;5076478;28;20052;-85
2021/06/23 06:45:40;;;;;;;7.57;2.60;;;15.30;75.80;;;;;;5076437;28;20136;-85
2021/06/23 06:51:27;;;;;;;4.20;2.20;;;15.60;75.70;;;;;;5077887;28;20431;-85
2021/06/23 06:53:53;;;;;;;3.50;2.10;;;15.70;75.50;;;;;;5076984;28;20029;-85
2021/06/23 06:56:18;;;;;;;4.40;2.05;;;15.70;75.80;;;;;;5078545;28;20024;-85
2021/06/23 06:58:45;;;;;;;7.97;2.50;;;15.70;75.00;;;;;;5077831;28;20502;-86
2021/06/23 07:01:10;;;;;;;6.43;2.30;;;15.70;74.80;;;;;;5073636;28;20036;-85
2021/06/23 07:03:36;;;;;;;5.78;2.35;;;15.70;74.60;;;;;;5078873;28;20443;-83
2021/06/23 07:09:27;;;;;;;2.47;2.05;;;15.80;74.60;;;;;;5078568;28;20059;-85
2021/06/23 07:11:53;;;;;;;4.88;1.92;;;15.90;74.60;;;;;;5076430;28;20024;-85
2021/06/23 07:14:22;;;;;;;4.95;2.20;;;16.00;74.10;;;;;;5077084;28;20033;-86
2021/06/23 07:16:48;;;;;;;9.40;2.50;;;16.00;73.90;;;;;;5078380;28;20032;-87
2021/06/23 07:19:16;;;;;;;4.53;1.92;;;16.10;73.70;;;;;;5077189;28;20450;-87
2021/06/23 07:25:05;;;;;;;3.90;2.08;;;16.20;73.50;;;;;;5077531;28;20502;-86
2021/06/23 07:27:31;;;;;;;4.75;1.85;;;16.30;73.30;;;;;;5076432;28;20024;-85
2021/06/23 07:29:56;;;;;;;8.35;2.00;;;16.30;73.30;;;;;;5076541;28;20112;-87
2021/06/23 07:32:26;;;;;;;5.97;2.10;;;16.40;73.10;;;;;;5076417;28;20539;-86
2021/06/23 07:37:17;;;;;;;4.85;1.90;;;16.50;72.40;;;;;;5078623;28;20036;-88
2021/06/23 07:39:43;;;;;;;4.28;2.28;;;16.50;72.50;;;;;;5077556;28;20028;-87
2021/06/23 07:42:12;;;;;;;7.97;2.30;;;16.50;72.30;;;;;;5075299;28;20369;-85
2021/06/23 07:47:11;;;;;;;6.05;2.72;;;16.50;72.00;;;;;;5078008;28;20032;-84
2021/06/23 07:53:09;;;;;;;4.63;2.30;;;16.50;72.00;;;;;;5076931;28;20166;-85
2021/06/23 08:09:25;;;;;;;4.55;2.40;;;17.00;71.00;;;;;;5078161;28;20519;-87
2021/06/23 08:11:55;;;;;;;6.15;2.50;;;17.10;70.90;;;;;;5076252;28;20138;-88
2021/06/23 08:14:21;;;;;;;6.10;2.22;;;17.10;70.50;;;;;;5076305;28;20034;-87
2021/06/23 08:16:48;;;;;;;3.70;2.30;;;17.20;70.60;;;;;;5077051;28;20435;-85
2021/06/23 08:19:14;;;;;;;4.60;2.60;;;17.20;70.20;;;;;;5072043;28;20488;-87
2021/06/23 08:21:40;;;;;;;6.80;3.10;;;17.20;69.50;;;;;;5076594;28;20089;-82
2021/06/23 08:24:06;;;;;;;4.00;2.00;;;17.10;69.30;;;;;;5074681;28;20044;-84
2021/06/23 08:26:31;;;;;;;6.20;2.10;;;17.10;69.40;;;;;;5070733;28;20408;-83
2021/06/23 08:28:57;;;;;;;4.93;1.85;;;17.10;69.10;;;;;;5074838;28;20074;-83
2021/06/23 08:31:22;;;;;;;4.38;1.90;;;17.00;69.30;;;;;;5070526;28;20496;-84
2021/06/23 08:33:53;;;;;;;5.78;1.90;;;17.10;69.20;;;;;;5073949;28;20077;-84
2021/06/23 08:36:18;;;;;;;4.93;1.55;;;17.20;69.10;;;;;;5073780;28;20028;-83
2021/06/23 08:38:44;;;;;;;9.43;2.08;;;17.30;68.90;;;;;;5074121;28;20040;-83
2021/06/23 08:41:10;;;;;;;7.45;1.70;;;17.50;68.60;;;;;;5075532;28;20040;-83
2021/06/23 08:43:35;;;;;;;4.95;2.00;;;17.50;68.20;;;;;;5074395;28;20024;-83
2021/06/23 08:46:03;;;;;;;4.40;1.90;;;17.60;67.70;;;;;;5074026;28;20086;-82
2021/06/23 08:48:30;;;;;;;5.38;1.88;;;17.60;66.90;;;;;;5073616;28;20025;-81
2021/06/23 08:51:00;;;;;;;4.72;1.83;;;17.70;67.10;;;;;;5073976;28;20024;-83
2021/06/23 08:53:26;;;;;;;5.05;1.77;;;17.80;66.70;;;;;;5074612;28;20071;-82
2021/06/23 08:55:52;;;;;;;6.10;1.77;;;17.90;66.60;;;;;;5072375;28;20020;-82
2021/06/23 08:58:17;;;;;;;5.18;1.95;;;18.00;66.30;;;;;;5073626;28;20090;-83
2021/06/23 09:00:43;;;;;;;7.22;2.00;;;18.10;65.60;;;;;;5072110;28;20534;-83
2021/06/23 09:03:08;;;;;;;3.90;1.50;;;18.10;65.60;;;;;;5071909;28;20048;-83
2021/06/23 09:05:51;;;;;;;4.57;1.63;;;18.20;65.60;;;;;;5072188;28;20028;-83
2021/06/23 09:08:35;;;;;;;3.00;1.30;;;18.30;65.40;;;;;;5074137;28;20036;-83
2021/06/23 09:11:16;;;;;;;5.07;1.67;;;18.40;65.40;;;;;;5074227;28;20059;-82
2021/06/23 09:13:42;;;;;;;4.38;1.67;;;18.50;65.00;;;;;;5073505;28;20036;-82
2021/06/23 09:16:10;;;;;;;3.55;1.77;;;18.70;64.90;;;;;;5073684;28;20036;-83
2021/06/23 09:18:39;;;;;;;6.35;1.98;;;18.70;64.20;;;;;;5073057;28;20118;-83
2021/06/23 09:21:13;;;;;;;5.05;1.67;;;18.70;64.60;;;;;;5072679;28;20468;-84
2021/06/23 09:23:51;;;;;;;4.35;1.50;;;18.70;63.70;;;;;;5073100;28;20025;-84
2021/06/23 09:26:22;;;;;;;6.25;1.80;;;18.70;63.60;;;;;;5073033;28;20527;-83
2021/06/23 09:29:14;;;;;;;4.18;1.67;;;18.80;63.60;;;;;;5072873;28;20404;-82
2021/06/23 09:32:00;;;;;;;4.43;1.80;;;18.80;62.40;;;;;;5074750;28;20020;-82
2021/06/23 09:34:28;;;;;;;4.05;1.88;;;18.90;62.30;;;;;;5073376;28;20058;-82
2021/06/23 09:36:55;;;;;;;5.75;1.75;;;19.00;61.60;;;;;;5073595;28;20028;-83
2021/06/23 09:39:22;;;;;;;3.00;1.60;;;19.00;61.80;;;;;;5074088;28;20036;-82
2021/06/23 09:41:50;;;;;;;5.07;1.80;;;19.20;62.00;;;;;;5075289;28;20028;-83
2021/06/23 09:44:15;;;;;;;6.38;1.60;;;19.40;61.70;;;;;;5075061;28;20021;-83
2021/06/23 09:46:45;;;;;;;4.57;1.65;;;19.60;61.60;;;;;;5073105;28;20032;-82
2021/06/23 09:49:14;;;;;;;4.28;1.80;;;19.70;60.70;;;;;;5073849;28;20487;-83
2021/06/23 09:51:52;;;;;;;3.63;1.42;;;19.80;60.40;;;;;;5073040;28;20411;-82
2021/06/23 09:54:20;;;;;;;5.00;1.52;;;19.80;60.50;;;;;;5073742;28;20028;-83
2021/06/23 09:56:47;;;;;;;6.15;1.70;;;19.90;60.50;;;;;;5072846;28;20120;-83
2021/06/23 09:59:40;;;;;;;5.65;1.70;;;19.90;60.10;;;;;;5073357;28;20052;-83
2021/06/23 10:02:29;;;;;;;6.13;1.60;;;19.80;60.50;;;;;;5073260;28;20123;-83
2021/06/23 10:04:57;;;;;;;5.32;1.75;;;19.70;59.40;;;;;;5073193;28;20021;-82
2021/06/23 10:07:45;;;;;;;5.55;1.70;;;19.60;59.50;;;;;;5073493;28;20413;-82
2021/06/23 10:10:17;;;;;;;5.20;1.90;;;19.50;58.90;;;;;;5073721;28;20074;-82
2021/06/23 10:12:46;;;;;;;5.03;1.60;;;19.50;58.90;;;;;;5074883;28;20115;-83
2021/06/23 10:15:12;;;;;;;3.97;1.42;;;19.50;59.10;;;;;;5073633;28;20396;-83
2021/06/23 10:17:38;;;;;;;4.70;1.45;;;19.60;59.40;;;;;;5073571;28;20138;-82
2021/06/23 10:20:05;;;;;;;3.67;1.30;;;19.70;59.20;;;;;;5073721;28;20020;-83
2021/06/23 10:22:32;;;;;;;4.22;1.63;;;19.80;59.30;;;;;;5073144;28;20391;-82
2021/06/23 10:25:03;;;;;;;2.40;1.38;;;19.90;59.00;;;;;;5072928;28;20016;-83
2021/06/23 10:27:29;;;;;;;4.53;1.80;;;20.10;59.00;;;;;;5072833;28;20023;-82
2021/06/23 10:29:57;;;;;;;3.60;1.60;;;20.10;58.70;;;;;;5072460;28;20107;-82
2021/06/23 10:32:24;;;;;;;3.10;1.40;;;20.20;58.70;;;;;;5072081;28;20120;-83
2021/06/23 10:34:50;;;;;;;3.63;1.48;;;20.30;58.70;;;;;;5072410;28;20479;-83
2021/06/23 10:37:16;;;;;;;4.13;1.60;;;20.40;58.10;;;;;;5072178;28;20048;-83
2021/06/23 10:39:43;;;;;;;5.32;1.75;;;20.40;57.90;;;;;;5072243;28;20032;-83
2021/06/23 10:42:09;;;;;;;3.95;1.52;;;20.40;57.20;;;;;;5072494;28;20028;-83
2021/06/23 10:44:42;;;;;;;2.53;1.20;;;20.30;57.30;;;;;;5072471;28;20025;-83
2021/06/23 10:47:11;;;;;;;4.40;1.90;;;20.40;57.70;;;;;;5071713;28;20128;-83
2021/06/23 10:49:50;;;;;;;3.72;1.90;;;20.50;57.30;;;;;;5075039;28;20098;-83
2021/06/23 10:52:26;;;;;;;4.25;1.45;;;20.50;57.10;;;;;;5074731;28;20150;-83
2021/06/23 10:54:52;;;;;;;3.50;1.30;;;20.60;57.20;;;;;;5076442;28;20047;-82
2021/06/23 10:57:33;;;;;;;4.30;1.40;;;20.70;57.20;;;;;;5075456;28;20048;-83
2021/06/23 11:00:00;;;;;;;3.05;1.75;;;20.80;56.70;;;;;;5075189;28;20107;-83
2021/06/23 11:02:34;;;;;;;4.90;1.50;;;20.80;57.00;;;;;;5075204;28;20031;-83
2021/06/23 11:05:04;;;;;;;2.45;1.52;;;20.80;56.90;;;;;;5072677;28;20396;-82
2021/06/23 11:07:33;;;;;;;6.07;1.50;;;20.80;56.90;;;;;;5075645;28;20055;-82
2021/06/23 11:10:14;;;;;;;2.63;1.40;;;21.00;57.10;;;;;;5075558;28;20115;-82
2021/06/23 11:12:46;;;;;;;4.47;1.50;;;21.00;57.20;;;;;;5075297;28;20029;-83
2021/06/23 11:15:15;;;;;;;3.88;1.55;;;21.10;56.90;;;;;;5074842;28;20040;-83
2021/06/23 11:17:41;;;;;;;3.60;1.50;;;21.10;56.80;;;;;;5074432;28;20036;-82
2021/06/23 11:20:19;;;;;;;3.20;1.40;;;21.20;56.50;;;;;;5074788;28;20046;-83
2021/06/23 11:22:56;;;;;;;4.07;1.55;;;21.20;56.00;;;;;;5075820;28;20032;-83
2021/06/23 11:25:31;;;;;;;2.40;1.40;;;21.20;55.70;;;;;;5075943;28;20029;-83
2021/06/23 11:28:15;;;;;;;4.05;1.60;;;21.30;55.90;;;;;;5076283;28;20025;-83
2021/06/23 11:34:02;;;;;;;3.65;1.50;;;21.40;56.20;;;;;;5075918;28;20388;-84
2021/06/23 11:36:28;;;;;;;2.95;1.30;;;21.50;56.10;;;;;;5075171;28;20033;-83
2021/06/23 11:38:55;;;;;;;4.45;1.52;;;21.60;56.00;;;;;;5073910;28;20498;-83
2021/06/23 11:41:20;;;;;;;3.47;1.40;;;21.70;55.90;;;;;;5073429;28;20029;-83
2021/06/23 11:43:52;;;;;;;1.52;1.25;;;21.80;55.80;;;;;;5074196;28;20091;-83
2021/06/23 11:46:21;;;;;;;3.65;1.80;;;21.90;55.50;;;;;;5076380;28;20103;-82
2021/06/23 11:48:46;;;;;;;6.07;1.85;;;21.90;54.80;;;;;;5076657;28;20024;-82
2021/06/23 11:51:13;;;;;;;3.20;1.50;;;21.70;54.40;;;;;;5075078;28;20464;-82
2021/06/23 11:53:40;;;;;;;4.18;1.70;;;21.70;54.80;;;;;;5074706;28;20412;-83
2021/06/23 11:56:06;;;;;;;4.20;1.50;;;21.70;54.70;;;;;;5075847;28;20056;-83
2021/06/23 11:58:33;;;;;;;3.33;1.25;;;21.70;54.40;;;;;;5075398;28;20048;-83
2021/06/23 12:00:59;;;;;;;2.65;1.45;;;21.80;54.70;;;;;;5071079;28;20107;-83
2021/06/23 12:03:27;;;;;;;4.60;1.48;;;21.90;54.10;;;;;;5076616;28;20099;-83
2021/06/23 12:05:57;;;;;;;3.40;1.40;;;21.80;54.00;;;;;;5074180;28;20088;-83
2021/06/23 12:08:23;;;;;;;3.72;1.38;;;21.90;54.30;;;;;;5074305;28;20047;-82
2021/06/23 12:10:48;;;;;;;3.58;1.52;;;22.00;54.30;;;;;;5074674;28;20029;-83
2021/06/23 12:13:24;;;;;;;5.43;1.50;;;22.10;54.20;;;;;;5075278;28;20111;-83
2021/06/23 12:16:10;;;;;;;;;;;;;;;;;;;;;
2021/06/23 12:22:30;;;;;;;4.07;1.60;;;22.40;53.60;;;;;;5074936;28;20035;-84
2021/06/23 12:24:56;;;;;;;3.78;1.60;;;22.30;53.30;;;;;;5073053;28;20419;-83
2021/06/23 12:27:22;;;;;;;2.50;1.48;;;22.10;53.60;;;;;;5074839;28;20069;-83
2021/06/23 12:29:48;;;;;;;5.35;1.70;;;22.00;53.50;;;;;;5074353;28;20476;-83
2021/06/23 12:32:13;;;;;;;3.10;1.58;;;21.90;53.50;;;;;;5072924;28;20081;-84
2021/06/23 12:34:39;;;;;;;3.80;1.70;;;21.80;53.60;;;;;;5074513;28;20035;-83
2021/06/23 12:37:05;;;;;;;2.80;1.70;;;21.80;53.80;;;;;;5074326;28;20388;-83
2021/06/23 12:39:30;;;;;;;3.30;1.80;;;21.70;53.90;;;;;;5070386;28;20037;-83
2021/06/23 12:41:56;;;;;;;4.20;1.40;;;21.70;54.10;;;;;;5072933;28;20028;-84
2021/06/23 12:44:22;;;;;;;3.15;1.63;;;21.70;54.40;;;;;;5072724;28;20044;-83
2021/06/23 12:46:48;;;;;;;3.33;1.42;;;21.80;54.50;;;;;;5072707;28;20020;-83
2021/06/23 12:49:14;;;;;;;3.88;1.52;;;21.90;54.40;;;;;;5074025;28;20028;-83
2021/06/23 12:51:40;;;;;;;3.75;1.90;;;22.00;54.20;;;;;;5072759;28;20035;-83
2021/06/23 12:54:06;;;;;;;2.40;1.40;;;22.00;54.00;;;;;;5072796;28;20064;-83
2021/06/23 12:56:31;;;;;;;3.33;1.40;;;22.10;54.00;;;;;;5072666;28;20468;-84
2021/06/23 13:02:19;;;;;;;2.50;1.40;;;22.40;53.80;;;;;;5073425;28;20082;-83
2021/06/23 13:04:45;;;;;;;3.92;1.40;;;22.30;53.50;;;;;;5071998;28;20446;-83
2021/06/23 13:07:11;;;;;;;5.45;1.70;;;22.30;53.60;;;;;;5071806;28;20025;-83
2021/06/23 13:09:37;;;;;;;4.55;1.90;;;22.30;53.30;;;;;;5073204;28;20032;-83
2021/06/23 13:15:24;;;;;;;2.45;1.35;;;22.00;52.90;;;;;;5073199;28;20091;-83
2021/06/23 13:17:49;;;;;;;2.92;1.30;;;22.00;53.30;;;;;;5072904;28;20032;-83
2021/06/23 13:20:21;;;;;;;2.65;1.70;;;22.00;53.40;;;;;;5072927;28;20020;-83
2021/06/23 13:22:52;;;;;;;2.75;1.55;;;21.90;53.40;;;;;;5071665;28;20111;-83
2021/06/23 13:25:18;;;;;;;3.65;1.48;;;21.80;53.70;;;;;;5072690;28;20037;-83
2021/06/23 13:27:43;;;;;;;2.92;1.33;;;21.80;53.90;;;;;;5073112;28;20472;-83
2021/06/23 13:30:09;;;;;;;4.18;1.75;;;21.80;54.00;;;;;;5071453;28;20038;-83
2021/06/23 13:32:35;;;;;;;3.97;1.58;;;21.70;53.70;;;;;;5071315;28;20423;-83
2021/06/23 13:35:01;;;;;;;2.25;1.45;;;21.70;53.80;;;;;;5072908;28;20082;-84
2021/06/23 13:37:27;;;;;;;3.05;1.40;;;21.60;53.90;;;;;;5072907;28;20063;-83
2021/06/23 13:39:53;;;;;;;5.85;1.50;;;21.60;54.20;;;;;;5073121;28;20431;-83
2021/06/23 13:42:19;;;;;;;4.38;1.65;;;21.50;54.20;;;;;;5071400;28;20082;-82